FFU weather

Futaleufú Airport
Futaleufu, Los Lagos Region, Chile

Public forecast

Using degrees Celsius for public forecast. Weather courtesy of forecast.io.

Current aviation weather report (METAR) for Futaleufú Airport

Retrieved 2019/10/18 03:00 UTC (32 minutes ago):

SCFT 180300Z AUTO VRB01KT 6000 HZ 06/03 Q1026

Closest aviation forecast (TAF) to Futaleufú Airport

Forecast is more than 12 hours old.

Closest forecast is Brigadier Antonio Parodi Airport, 35.5 nm (65.7 km) ENE. Retrieved 2019/04/29 06:00 UTC (6 months ago):

TAF SAVE 290500Z 2906/3006 27015KT 9999 SCT030 SCT080 TX10/2919Z TN01/2910Z BECMG 2911/2913 25020G40KT BKN023 BECMG 2919/2921 29020KT